Time;durP1;ratioP1;P1;durP2;ratioP2;P2;SDS_P1;SDS_P2;PMS_P1;PMS_P2;Temp;Humidity;BMP_temperature;BMP_pressure;BME280_temperature;BME280_humidity;BME280_pressure;Samples;Min_cycle;Max_cycle;Signal;HPM_P1;HPM_P2
2023/06/18 00:01:29;;;;;;;15.63;12.40;;;17.30;99.90;;;17.08;69.71;100814.66;5053324;28;20277;-76
2023/06/18 00:04:01;;;;;;;15.13;13.63;;;17.30;99.90;;;17.09;69.87;100809.03;5053265;28;20372;-76
2023/06/18 00:06:34;;;;;;;13.83;12.53;;;17.20;99.90;;;17.05;69.29;100806.94;5053299;28;20247;-76
2023/06/18 00:09:06;;;;;;;14.50;13.10;;;17.30;99.90;;;16.99;69.96;100800.44;5053242;28;20210;-76
2023/06/18 00:11:38;;;;;;;15.00;13.50;;;17.20;99.90;;;16.96;70.76;100806.25;5053181;28;20237;-76
2023/06/18 00:14:10;;;;;;;14.67;13.37;;;17.10;99.90;;;16.88;70.19;100806.44;5053088;28;20404;-76
2023/06/18 00:16:41;;;;;;;14.03;12.67;;;17.10;99.90;;;16.86;70.57;100804.94;5053155;28;20190;-76
2023/06/18 00:19:14;;;;;;;14.80;13.00;;;17.00;99.90;;;16.81;71.03;100807.44;5053170;28;20186;-76
2023/06/18 00:21:47;;;;;;;14.37;12.97;;;17.00;99.90;;;16.75;72.33;100805.53;5053169;28;20568;-76
2023/06/18 00:24:19;;;;;;;15.03;13.60;;;16.90;99.90;;;16.77;72.24;100806.16;5053068;28;20222;-76
2023/06/18 00:26:51;;;;;;;15.07;13.67;;;17.00;99.90;;;16.69;72.63;100802.56;5053027;28;20197;-76
2023/06/18 00:29:23;;;;;;;14.37;13.07;;;16.90;99.90;;;16.76;72.80;100810.72;5052989;28;20305;-76
2023/06/18 00:31:55;;;;;;;14.20;12.73;;;16.90;99.90;;;16.82;71.25;100803.66;5052917;28;20285;-76
2023/06/18 00:34:32;;;;;;;13.97;12.73;;;17.10;99.90;;;16.71;72.65;100803.19;5052950;28;20273;-76
2023/06/18 00:37:09;;;;;;;15.30;13.80;;;17.00;99.90;;;16.68;72.89;100803.59;5052879;28;20186;-76
2023/06/18 00:39:41;;;;;;;14.20;12.80;;;16.90;99.90;;;16.64;72.21;100798.81;5052959;28;20217;-76
2023/06/18 00:42:13;;;;;;;16.73;12.90;;;16.90;99.90;;;16.58;72.44;100803.13;5052734;28;20596;-76
2023/06/18 00:44:45;;;;;;;14.67;13.23;;;16.80;99.90;;;16.51;73.38;100802.19;5052915;28;20225;-76
2023/06/18 00:47:20;;;;;;;14.37;13.00;;;16.70;99.90;;;16.47;72.74;100800.91;5052937;28;20194;-76
2023/06/18 00:49:55;;;;;;;14.20;12.90;;;16.70;99.90;;;16.47;73.78;100797.41;5052824;28;20210;-76
2023/06/18 00:52:29;;;;;;;15.17;13.57;;;16.70;99.90;;;16.48;73.51;100796.34;5055688;28;20291;-76
2023/06/18 00:55:02;;;;;;;14.80;13.23;;;16.70;99.90;;;16.44;73.00;100801.31;5056770;28;20285;-76
2023/06/18 00:57:35;;;;;;;14.97;13.50;;;16.70;99.90;;;16.46;72.89;100801.97;5056721;28;20222;-76
2023/06/18 01:00:12;;;;;;;15.13;13.63;;;16.70;99.90;;;16.49;72.35;100803.44;5056388;28;20281;-76
2023/06/18 01:02:49;;;;;;;14.63;13.23;;;16.70;99.90;;;16.40;72.53;100802.78;5056585;28;20267;-76
2023/06/18 01:05:24;;;;;;;14.70;13.30;;;16.60;99.90;;;16.34;72.71;100805.38;5056564;28;20199;-76
2023/06/18 01:07:59;;;;;;;15.40;13.80;;;16.50;99.90;;;16.39;72.17;100802.94;5056604;28;20201;-76
2023/06/18 01:10:32;;;;;;;14.77;13.20;;;16.70;99.90;;;16.37;72.78;100811.25;5056399;28;20246;-76
2023/06/18 01:13:07;;;;;;;13.77;12.47;;;16.60;99.90;;;16.52;71.38;100803.88;5056415;28;20313;-76
2023/06/18 01:15:39;;;;;;;15.57;14.03;;;16.90;99.90;;;16.34;72.02;100803.53;5056400;28;20288;-76
2023/06/18 01:18:12;;;;;;;13.97;12.63;;;16.60;99.90;;;16.18;72.39;100806.53;5056362;28;20197;-76
2023/06/18 01:20:49;;;;;;;15.30;13.80;;;16.40;99.90;;;16.16;72.66;100808.59;5056335;28;20218;-76
2023/06/18 01:23:31;;;;;;;15.30;13.67;;;16.30;99.90;;;16.18;72.80;100803.81;5055911;28;20769;-76
2023/06/18 01:26:05;;;;;;;14.23;12.90;;;16.40;99.90;;;16.06;72.85;100800.78;5056195;28;20194;-76
2023/06/18 01:28:37;;;;;;;14.50;13.20;;;16.30;99.90;;;16.04;72.92;100793.94;5056087;28;22091;-76
2023/06/18 01:31:08;;;;;;;14.50;13.07;;;16.20;99.90;;;16.13;72.36;100799.00;5056083;28;20289;-76
2023/06/18 01:33:40;;;;;;;14.80;13.40;;;16.40;99.90;;;15.94;72.84;100796.13;5055671;28;20233;-76
2023/06/18 01:36:24;;;;;;;15.33;13.80;;;16.20;99.90;;;15.84;72.72;100792.91;5055688;28;20566;-76
2023/06/18 01:39:03;;;;;;;14.90;13.60;;;16.00;99.90;;;15.85;73.43;100794.59;5056003;28;20214;-76
2023/06/18 01:41:40;;;;;;;14.60;12.90;;;16.10;99.90;;;15.81;72.95;100793.31;5055646;28;20289;-76
2023/06/18 01:44:19;;;;;;;15.47;13.93;;;16.10;99.90;;;15.77;72.85;100802.81;5055795;28;20257;-76
2023/06/18 01:46:55;;;;;;;14.40;12.93;;;16.00;99.90;;;15.82;73.21;100806.63;5055729;28;20194;-76
2023/06/18 01:49:31;;;;;;;14.93;13.33;;;16.10;99.90;;;15.81;73.41;100802.25;5055429;28;20659;-76
2023/06/18 01:52:07;;;;;;;15.37;13.77;;;16.10;99.90;;;15.77;73.55;100809.06;5055335;28;20731;-76
2023/06/18 01:54:43;;;;;;;15.07;13.63;;;16.10;99.90;;;15.66;73.02;100805.00;5055387;28;20289;-76
2023/06/18 01:57:20;;;;;;;14.63;13.33;;;15.90;99.90;;;15.60;73.91;100805.75;5055658;28;20296;-76
2023/06/18 01:59:53;;;;;;;15.17;13.67;;;15.80;99.90;;;15.57;74.14;100805.31;5055563;28;20221;-76
2023/06/18 02:02:25;;;;;;;15.73;14.00;;;15.80;99.90;;;15.53;74.13;100810.25;5055333;28;20233;-76
2023/06/18 02:04:56;;;;;;;14.77;13.37;;;15.90;99.90;;;15.50;74.40;100807.94;5055579;28;20199;-76
2023/06/18 02:07:28;;;;;;;15.00;13.60;;;15.80;99.90;;;15.49;74.51;100800.03;5055433;28;20201;-76
2023/06/18 02:10:01;;;;;;;14.87;13.37;;;15.70;99.90;;;15.44;74.05;100807.84;5055329;28;20304;-76
2023/06/18 02:12:33;;;;;;;14.60;13.30;;;15.70;99.90;;;15.43;74.38;100808.84;5055293;28;20222;-76
2023/06/18 02:15:05;;;;;;;12.93;11.63;;;15.40;99.90;;;15.47;74.38;100813.69;5055306;28;20248;-76
2023/06/18 02:17:38;;;;;;;13.80;12.50;;;15.70;99.90;;;15.44;73.54;100813.22;5055230;28;20195;-76
2023/06/18 02:20:13;;;;;;;15.27;13.87;;;15.80;99.90;;;15.41;74.52;100824.41;5055472;28;20194;-76
2023/06/18 02:22:45;;;;;;;15.30;13.70;;;15.70;99.90;;;15.43;73.45;100822.34;5055036;28;20711;-76
2023/06/18 02:25:19;;;;;;;15.23;13.83;;;15.70;99.90;;;15.28;74.65;100821.53;5055132;28;20222;-76
2023/06/18 02:27:58;;;;;;;14.37;13.00;;;15.60;99.90;;;15.27;74.90;100818.00;5055063;28;20218;-76
2023/06/18 02:30:31;;;;;;;13.93;12.53;;;15.50;99.90;;;15.25;74.56;100825.44;5054944;28;20638;-76
2023/06/18 02:33:06;;;;;;;14.37;12.97;;;15.50;99.90;;;15.29;74.46;100824.03;5054905;28;20233;-76
2023/06/18 02:35:39;;;;;;;13.90;12.50;;;15.60;99.90;;;15.30;74.83;100823.03;5054619;28;20739;-76
2023/06/18 02:38:11;;;;;;;15.43;13.80;;;15.70;99.90;;;15.40;76.21;100828.13;5054891;28;20373;-76
2023/06/18 02:40:44;;;;;;;15.23;13.63;;;15.70;99.90;;;15.39;74.71;100824.56;5054611;28;20256;-76
2023/06/18 02:43:16;;;;;;;15.70;14.17;;;15.80;99.90;;;15.30;75.33;100824.88;5054371;28;20727;-76
2023/06/18 02:45:50;;;;;;;17.30;14.87;;;15.60;99.90;;;15.24;76.01;100818.38;5054410;28;20237;-76
2023/06/18 02:48:21;;;;;;;16.03;14.37;;;15.50;99.90;;;15.26;75.58;100821.72;5055225;28;20269;-76
2023/06/18 02:50:53;;;;;;;15.63;14.13;;;15.60;99.90;;;15.24;76.12;100816.50;5054259;28;20679;-76
2023/06/18 02:53:25;;;;;;;19.80;17.80;;;15.60;99.90;;;15.30;77.21;100823.03;5054494;28;20317;-76
2023/06/18 02:55:58;;;;;;;19.23;15.83;;;15.70;99.90;;;15.28;75.69;100819.66;5054525;28;20221;-76
2023/06/18 02:58:30;;;;;;;18.93;17.03;;;15.70;99.90;;;15.19;76.21;100818.09;5054506;28;20259;-76
2023/06/18 03:01:03;;;;;;;19.00;17.03;;;15.50;99.90;;;15.20;76.36;100822.47;5054448;28;20197;-76
2023/06/18 03:03:35;;;;;;;20.37;18.37;;;15.50;99.90;;;15.16;77.37;100822.03;5054413;28;20262;-76
2023/06/18 03:06:07;;;;;;;19.77;17.77;;;15.50;99.90;;;15.10;77.09;100827.34;5054377;28;20194;-76
2023/06/18 03:08:38;;;;;;;17.20;15.40;;;15.40;99.90;;;15.02;76.61;100819.34;5054032;28;20711;-76
2023/06/18 03:11:11;;;;;;;16.17;14.47;;;15.50;99.90;;;14.99;76.69;100827.81;5054220;28;20217;-76
2023/06/18 03:13:43;;;;;;;16.93;15.13;;;15.30;99.90;;;15.00;76.65;100832.19;5053618;28;20265;-76
2023/06/18 03:16:15;;;;;;;16.67;15.00;;;15.30;99.90;;;14.98;76.71;100829.66;5054123;28;20214;-76
2023/06/18 03:18:47;;;;;;;16.87;15.10;;;15.30;99.90;;;14.97;76.75;100832.53;5053835;28;20527;-76
2023/06/18 03:21:19;;;;;;;15.90;14.20;;;15.30;99.90;;;15.03;76.70;100831.81;5054070;28;20190;-76
2023/06/18 03:23:51;;;;;;;16.50;14.90;;;15.40;99.90;;;14.94;77.02;100838.28;5053558;28;20601;-76
2023/06/18 03:26:25;;;;;;;16.10;14.60;;;15.20;99.90;;;14.89;76.70;100838.88;5053678;28;20244;-76
2023/06/18 03:28:58;;;;;;;16.03;14.33;;;15.30;99.90;;;14.90;77.04;100837.81;5053918;28;20201;-76
2023/06/18 03:31:30;;;;;;;16.40;14.90;;;15.20;99.90;;;14.87;76.97;100832.81;5053749;28;20351;-76
2023/06/18 03:34:02;;;;;;;16.23;14.80;;;15.20;99.90;;;14.83;77.30;100828.00;5053696;28;20245;-77
2023/06/18 03:36:39;;;;;;;16.00;14.37;;;15.10;99.90;;;14.81;76.80;100824.63;5053781;28;20190;-76
2023/06/18 03:39:11;;;;;;;16.87;15.37;;;15.20;99.90;;;14.83;77.24;100833.38;5053443;28;20525;-76
2023/06/18 03:41:44;;;;;;;17.17;15.47;;;15.20;99.90;;;14.89;77.47;100833.47;5053373;28;20212;-76
2023/06/18 03:44:16;;;;;;;16.20;14.67;;;15.20;99.90;;;14.84;77.41;100833.19;5053268;28;20317;-76
2023/06/18 03:46:48;;;;;;;17.53;15.87;;;15.40;99.90;;;14.83;77.57;100830.69;5053609;28;20190;-76
2023/06/18 03:49:20;;;;;;;18.83;16.83;;;15.20;99.90;;;14.83;77.88;100836.09;5054159;28;20197;-76
2023/06/18 03:51:52;;;;;;;17.97;16.13;;;15.20;99.90;;;14.91;77.94;100835.97;5053155;28;20755;-76
2023/06/18 03:54:26;;;;;;;17.67;15.97;;;15.30;99.90;;;14.87;78.42;100832.81;5053154;28;20697;-76
2023/06/18 03:56:59;;;;;;;18.20;16.40;;;15.20;99.90;;;14.82;78.40;100832.53;5053618;28;20240;-76
2023/06/18 03:59:29;;;;;;;19.50;17.60;;;15.30;99.90;;;14.82;78.63;100839.78;5053439;28;20190;-76
2023/06/18 04:02:01;;;;;;;20.57;18.47;;;15.20;99.90;;;14.85;78.70;100828.63;5053300;28;20240;-76
2023/06/18 04:04:33;;;;;;;19.20;17.50;;;15.20;99.90;;;14.86;78.57;100836.53;5053492;28;20281;-76
2023/06/18 04:07:05;;;;;;;18.87;17.07;;;15.50;99.90;;;14.84;78.95;100835.88;5053188;28;20190;-76
2023/06/18 04:09:37;;;;;;;20.90;18.87;;;15.30;99.90;;;14.88;79.00;100833.66;5053041;28;20285;-76
2023/06/18 04:12:12;;;;;;;19.03;17.23;;;15.30;99.90;;;14.90;79.12;100837.81;5053353;28;20279;-76
2023/06/18 04:14:45;;;;;;;21.03;19.07;;;15.30;99.90;;;14.92;79.94;100833.09;5053390;28;20273;-76
2023/06/18 04:17:17;;;;;;;20.97;18.70;;;15.30;99.90;;;14.92;80.24;100832.25;5053982;28;20213;-76
2023/06/18 04:19:49;;;;;;;20.03;18.13;;;15.30;99.90;;;14.91;80.11;100833.28;5053049;28;20225;-76
2023/06/18 04:22:21;;;;;;;19.73;17.93;;;15.30;99.90;;;14.97;79.89;100837.91;5053097;28;20226;-76
2023/06/18 04:24:53;;;;;;;20.20;18.20;;;15.50;99.90;;;15.03;79.97;100829.94;5053692;28;20217;-76
2023/06/18 04:27:26;;;;;;;20.80;18.77;;;15.50;99.90;;;15.01;80.32;100833.81;5055819;28;20640;-76
2023/06/18 04:29:58;;;;;;;20.97;18.97;;;15.50;99.90;;;15.03;80.10;100838.03;5056914;28;20532;-76
2023/06/18 04:32:30;;;;;;;20.50;18.60;;;15.50;99.90;;;15.06;80.45;100834.13;5057171;28;20317;-76
2023/06/18 04:35:01;;;;;;;21.57;19.57;;;15.50;99.90;;;15.06;81.56;100843.06;5057208;28;20558;-76
2023/06/18 04:37:33;;;;;;;22.10;19.67;;;15.50;99.90;;;15.06;82.00;100837.66;5057405;28;20205;-76
2023/06/18 04:40:05;;;;;;;23.60;21.13;;;15.50;99.90;;;15.02;82.55;100828.25;5057133;28;20296;-76
2023/06/18 04:42:39;;;;;;;24.73;22.23;;;15.50;99.90;;;15.07;82.89;100827.69;5057008;28;20230;-76
2023/06/18 04:45:12;;;;;;;25.00;22.40;;;15.60;99.90;;;15.09;82.95;100833.75;5056988;28;20186;-76
2023/06/18 04:47:44;;;;;;;22.90;20.77;;;15.60;99.90;;;15.13;81.87;100829.66;5056609;28;20715;-76
2023/06/18 04:50:16;;;;;;;23.97;21.63;;;15.70;99.90;;;15.18;82.44;100829.91;5056839;28;20191;-76
2023/06/18 04:52:47;;;;;;;24.10;21.77;;;15.70;99.90;;;15.22;82.43;100831.22;5056815;28;20253;-76
2023/06/18 04:55:19;;;;;;;24.70;21.87;;;15.80;99.90;;;15.24;82.53;100834.53;5056821;28;20226;-76
2023/06/18 04:57:52;;;;;;;23.30;20.93;;;15.70;99.90;;;15.26;82.35;100821.72;5056786;28;20249;-76
2023/06/18 05:00:24;;;;;;;24.03;21.50;;;15.90;99.90;;;15.31;82.23;100834.66;5056747;28;20221;-76
2023/06/18 05:02:57;;;;;;;24.03;21.53;;;15.80;99.90;;;15.34;81.78;100831.56;5056335;28;20283;-76
2023/06/18 05:05:29;;;;;;;25.60;22.93;;;15.90;99.90;;;15.39;82.63;100838.06;5056702;28;20226;-76
2023/06/18 05:08:01;;;;;;;26.50;21.90;;;16.10;99.90;;;15.43;81.61;100838.53;5056660;28;20269;-76
2023/06/18 05:10:33;;;;;;;24.53;22.13;;;16.00;99.90;;;15.47;81.81;100845.22;5056481;28;20321;-76
2023/06/18 05:13:06;;;;;;;24.67;22.07;;;16.10;99.90;;;15.50;80.92;100845.72;5056443;28;20256;-76
2023/06/18 05:15:38;;;;;;;25.87;23.13;;;16.00;99.90;;;15.52;81.73;100843.66;5056464;28;20317;-76
2023/06/18 05:18:10;;;;;;;25.97;22.30;;;16.20;99.90;;;15.56;81.76;100841.41;5056425;28;20186;-76
2023/06/18 05:20:42;;;;;;;24.03;21.67;;;16.10;99.90;;;15.58;82.42;100842.88;5056374;28;20198;-76
2023/06/18 05:23:14;;;;;;;24.90;22.20;;;16.10;99.90;;;15.63;81.87;100839.63;5056248;28;20248;-76
2023/06/18 05:25:46;;;;;;;21.33;19.13;;;16.20;99.90;;;15.64;80.81;100835.91;5056333;28;20277;-76
2023/06/18 05:28:20;;;;;;;25.40;23.00;;;16.30;99.90;;;15.70;81.39;100845.94;5056242;28;20190;-76
2023/06/18 05:30:52;;;;;;;25.97;23.23;;;16.30;99.90;;;15.73;81.77;100843.69;5056141;28;20241;-76
2023/06/18 05:33:24;;;;;;;25.43;22.80;;;16.30;99.90;;;15.77;81.65;100841.44;5055748;28;20584;-76
2023/06/18 05:35:56;;;;;;;26.57;23.20;;;16.30;99.90;;;15.83;82.20;100850.63;5055790;28;20286;-76
2023/06/18 05:38:28;;;;;;;25.87;23.23;;;16.40;99.90;;;15.88;82.29;100850.91;5055537;28;20241;-76
2023/06/18 05:41:00;;;;;;;27.07;23.70;;;16.40;99.90;;;15.89;82.32;100855.28;5055652;28;20676;-76
2023/06/18 05:43:33;;;;;;;24.17;21.83;;;16.50;99.90;;;15.93;82.11;100857.38;5055905;28;20281;-76
2023/06/18 05:46:05;;;;;;;25.53;22.70;;;16.50;99.90;;;15.97;82.74;100863.25;5055897;28;20722;-76
2023/06/18 05:48:37;;;;;;;26.17;23.40;;;16.50;99.90;;;16.04;83.17;100864.16;5055528;28;20715;-76
2023/06/18 05:51:11;;;;;;;24.40;21.80;;;16.60;99.90;;;16.06;83.04;100867.50;5055457;28;20641;-76
2023/06/18 05:53:43;;;;;;;25.67;23.10;;;16.70;99.90;;;16.09;82.48;100867.97;5055676;28;20226;-76
2023/06/18 05:56:15;;;;;;;23.70;21.30;;;16.70;99.90;;;16.16;81.72;100870.72;5055744;28;20278;-76
2023/06/18 05:58:48;;;;;;;24.40;21.80;;;16.80;99.90;;;16.22;81.11;100872.63;5055339;28;20672;-76
2023/06/18 06:01:20;;;;;;;25.17;22.47;;;16.80;99.90;;;16.29;81.17;100872.69;5055320;28;20236;-76
2023/06/18 06:03:51;;;;;;;25.63;22.90;;;16.90;99.90;;;16.35;81.64;100872.75;5055575;28;20230;-76
2023/06/18 06:06:23;;;;;;;23.90;21.40;;;17.00;99.90;;;16.40;82.00;100874.88;5055575;28;20197;-76
2023/06/18 06:08:55;;;;;;;24.60;20.97;;;17.00;99.90;;;16.46;82.16;100880.34;5055143;28;20194;-76
2023/06/18 06:11:27;;;;;;;22.87;20.30;;;17.10;99.90;;;16.52;81.58;100879.56;5055328;28;20210;-76
2023/06/18 06:14:01;;;;;;;24.77;21.93;;;17.10;99.90;;;16.69;81.42;100886.38;5055360;28;20240;-76
2023/06/18 06:16:33;;;;;;;24.03;21.67;;;17.40;99.90;;;16.70;80.55;100882.66;5055044;28;20651;-76
2023/06/18 06:19:05;;;;;;;23.80;21.17;;;17.30;99.90;;;16.72;81.50;100880.56;5055276;28;20233;-76
2023/06/18 06:21:37;;;;;;;23.73;21.27;;;17.70;99.90;;;16.82;81.26;100879.38;5056046;28;20241;-76
2023/06/18 06:24:09;;;;;;;22.83;20.50;;;17.40;99.90;;;16.89;81.53;100880.25;5054824;28;20261;-76
2023/06/18 06:26:41;;;;;;;24.77;21.17;;;17.50;99.90;;;16.92;81.37;100879.91;5054848;28;20198;-76
2023/06/18 06:29:14;;;;;;;24.57;21.03;;;17.50;99.90;;;16.99;81.53;100884.28;5054817;28;20679;-76
2023/06/18 06:31:46;;;;;;;22.57;20.00;;;17.70;99.90;;;17.06;79.41;100882.47;5054641;28;20696;-76
2023/06/18 06:34:19;;;;;;;24.40;20.10;;;17.70;99.90;;;17.11;79.13;100884.59;5054890;28;20660;-76
2023/06/18 06:36:51;;;;;;;21.47;18.63;;;17.80;99.90;;;17.13;78.96;100898.72;5054844;28;20196;-76
2023/06/18 06:39:23;;;;;;;21.47;19.03;;;17.80;99.90;;;17.20;78.73;100894.19;5054911;28;20194;-76
2023/06/18 06:41:55;;;;;;;22.30;18.77;;;17.80;99.90;;;17.24;78.88;100885.50;5054328;28;20681;-76
2023/06/18 06:44:28;;;;;;;20.20;18.03;;;17.80;99.90;;;17.37;76.91;100892.00;5054472;28;20640;-76
2023/06/18 06:47:00;;;;;;;20.93;18.73;;;18.00;99.90;;;17.42;77.15;100876.84;5054749;28;20218;-76
2023/06/18 06:49:32;;;;;;;20.13;17.87;;;18.00;99.90;;;17.45;78.90;100881.00;5053524;28;20289;-76
2023/06/18 06:52:04;;;;;;;22.20;19.77;;;18.10;99.90;;;17.60;77.34;100885.25;5054569;28;20217;-76
2023/06/18 06:54:36;;;;;;;20.97;18.77;;;18.20;99.90;;;17.65;77.30;100893.63;5054620;28;20285;-76
2023/06/18 06:57:08;;;;;;;20.20;17.73;;;18.30;99.90;;;17.64;78.02;100891.94;5054589;28;20624;-76
2023/06/18 06:59:41;;;;;;;19.10;17.07;;;18.20;99.90;;;17.73;77.59;100895.31;5054502;28;20272;-76
2023/06/18 07:02:13;;;;;;;19.13;16.63;;;18.40;99.90;;;17.79;77.64;100899.06;5054404;28;20226;-76
2023/06/18 07:04:47;;;;;;;18.50;16.63;;;18.40;99.90;;;17.97;75.55;100893.94;5054357;28;20198;-76
2023/06/18 07:07:20;;;;;;;15.90;14.47;;;18.60;99.90;;;18.03;75.21;100901.22;5054030;28;20652;-76
2023/06/18 07:09:52;;;;;;;17.17;15.33;;;18.70;99.90;;;18.05;75.26;100897.28;5053973;28;20747;-76
2023/06/18 07:12:24;;;;;;;18.30;15.33;;;18.70;99.90;;;18.11;75.66;100892.94;5054123;28;20321;-76
2023/06/18 07:14:57;;;;;;;16.33;14.83;;;18.80;99.90;;;18.15;75.85;100894.19;5053845;28;20573;-76
2023/06/18 07:17:29;;;;;;;16.17;14.63;;;18.80;99.90;;;18.23;76.56;100896.69;5053852;28;20229;-76
2023/06/18 07:20:00;;;;;;;16.33;14.57;;;18.90;99.90;;;18.36;74.81;100895.84;5053835;28;20196;-76
2023/06/18 07:22:33;;;;;;;16.50;14.70;;;19.00;99.90;;;18.47;75.68;100895.25;5053971;28;20308;-76
2023/06/18 07:25:05;;;;;;;15.90;14.20;;;19.20;99.90;;;18.52;76.17;100893.63;5054031;28;20190;-76
2023/06/18 07:27:38;;;;;;;16.27;14.77;;;19.30;99.90;;;18.72;74.18;100891.75;5053929;28;20622;-76
2023/06/18 07:30:14;;;;;;;16.30;14.70;;;19.40;99.90;;;18.90;72.72;100892.97;5054446;28;20591;-76
2023/06/18 07:32:46;;;;;;;15.97;14.37;;;19.50;99.90;;;18.85;73.34;100890.91;5053412;28;20234;-76
2023/06/18 07:35:18;;;;;;;17.77;15.03;;;19.50;99.90;;;18.90;73.83;100892.97;5053810;28;20197;-76
2023/06/18 07:37:50;;;;;;;15.50;13.80;;;19.50;99.90;;;19.09;71.27;100886.69;5053748;28;20617;-76
2023/06/18 07:40:21;;;;;;;15.80;14.23;;;19.70;99.90;;;19.11;71.46;100896.25;5053332;28;20238;-76
2023/06/18 07:42:54;;;;;;;17.53;15.70;;;19.70;99.90;;;19.16;71.67;100891.06;5053614;28;20304;-76
2023/06/18 07:45:27;;;;;;;17.60;15.80;;;19.80;99.90;;;19.24;72.53;100895.41;5053572;28;20290;-76
2023/06/18 07:48:02;;;;;;;15.30;13.73;;;19.80;99.90;;;19.60;70.34;100890.31;5053549;28;20210;-76
2023/06/18 07:50:34;;;;;;;15.50;13.90;;;20.30;99.90;;;19.50;71.02;100895.34;5053731;28;20197;-76
2023/06/18 07:53:06;;;;;;;16.27;13.87;;;20.10;99.90;;;19.69;68.10;100891.72;5053075;28;20678;-76
2023/06/18 07:55:38;;;;;;;16.07;14.47;;;20.30;99.90;;;19.71;67.86;100892.34;5053194;28;20286;-77
2023/06/18 07:58:10;;;;;;;17.97;16.20;;;20.30;99.90;;;19.66;71.21;100883.16;5053447;28;20735;-77
2023/06/18 08:00:43;;;;;;;18.27;16.37;;;20.20;99.90;;;19.68;69.98;100884.63;5053894;28;20243;-77
2023/06/18 08:03:14;;;;;;;14.53;13.23;;;20.30;99.90;;;19.77;68.54;100887.09;5053068;28;20676;-77
2023/06/18 08:05:46;;;;;;;15.63;14.03;;;20.40;99.90;;;19.86;69.88;100883.09;5053331;28;20276;-77
2023/06/18 08:08:18;;;;;;;17.33;15.63;;;20.50;99.90;;;19.91;69.81;100885.97;5053302;28;20278;-77
2023/06/18 08:10:50;;;;;;;15.13;13.67;;;20.50;99.90;;;19.94;71.09;100877.38;5053358;28;20294;-77
2023/06/18 08:13:22;;;;;;;16.47;14.60;;;20.50;99.90;;;20.04;68.82;100875.84;5053129;28;20292;-77
2023/06/18 08:15:56;;;;;;;15.03;13.40;;;20.70;99.90;;;20.37;64.19;100872.94;5053252;28;20191;-77
2023/06/18 08:18:28;;;;;;;14.30;12.07;;;20.90;99.90;;;20.39;64.56;100878.16;5053278;28;20244;-77
2023/06/18 08:21:00;;;;;;;13.50;12.17;;;21.00;99.90;;;20.38;64.39;100877.31;5053234;28;20639;-77
2023/06/18 08:23:32;;;;;;;11.53;10.53;;;21.00;99.90;;;20.55;61.12;100878.44;5053130;28;20634;-77
2023/06/18 08:26:04;;;;;;;12.10;10.93;;;21.10;99.90;;;20.59;62.41;100879.66;5052919;28;20759;-77
2023/06/18 08:28:36;;;;;;;13.87;11.63;;;21.20;99.90;;;20.62;61.78;100879.22;5053141;28;20248;-77
2023/06/18 08:31:09;;;;;;;15.23;10.90;;;21.30;99.90;;;20.82;60.42;100884.50;5052827;28;20294;-77
2023/06/18 08:33:41;;;;;;;15.00;13.50;;;21.40;99.90;;;20.87;61.12;100878.34;5052904;28;20716;-77
2023/06/18 08:36:13;;;;;;;12.13;10.83;;;21.50;99.90;;;20.89;60.92;100879.00;5053134;28;20278;-77
2023/06/18 08:38:45;;;;;;;12.27;11.03;;;21.50;99.90;;;20.98;59.84;100872.19;5053065;28;20282;-77
2023/06/18 08:41:17;;;;;;;14.10;11.40;;;21.60;99.50;;;20.99;60.26;100871.13;5053001;28;20310;-77
2023/06/18 08:43:50;;;;;;;13.37;12.00;;;21.60;99.60;;;21.08;61.45;100870.59;5052983;28;20222;-76
2023/06/18 08:46:24;;;;;;;11.23;10.13;;;21.70;99.90;;;21.15;60.26;100878.75;5052713;28;20186;-76
2023/06/18 08:49:02;;;;;;;11.83;10.73;;;21.70;99.50;;;21.28;60.15;100875.84;5052686;28;20610;-77
2023/06/18 08:51:37;;;;;;;11.77;10.60;;;21.80;99.70;;;21.41;59.31;100867.53;5052963;28;20230;-77
2023/06/18 08:54:13;;;;;;;11.90;10.70;;;22.00;99.20;;;21.64;57.34;100870.38;5052746;28;20241;-77
2023/06/18 08:56:56;;;;;;;11.03;10.07;;;22.30;98.00;;;21.65;56.85;100861.16;5052926;28;20648;-77
2023/06/18 08:59:31;;;;;;;10.53;9.53;;;22.20;97.60;;;21.68;58.44;100868.84;5052912;28;20212;-77
2023/06/18 09:02:04;;;;;;;10.57;9.57;;;22.30;98.50;;;21.71;58.39;100862.13;5052904;28;20276;-77
2023/06/18 09:04:35;;;;;;;11.53;10.53;;;22.30;98.20;;;21.84;56.48;100859.22;5052920;28;20195;-77
2023/06/18 09:07:08;;;;;;;9.60;8.63;;;22.40;97.90;;;21.95;56.50;100861.16;5052962;28;20268;-77
2023/06/18 09:09:41;;;;;;;11.40;9.97;;;22.50;97.00;;;22.01;55.53;100859.44;5052797;28;20194;-77
2023/06/18 09:12:13;;;;;;;9.27;8.27;;;22.60;96.40;;;22.17;54.91;100861.50;5053547;28;20195;-78
2023/06/18 09:14:45;;;;;;;10.07;9.10;;;22.70;95.60;;;22.26;54.12;100870.19;5057155;28;20227;-78
2023/06/18 09:17:18;;;;;;;9.47;8.40;;;22.80;95.50;;;22.31;54.41;100862.94;5056545;28;20197;-78
2023/06/18 09:19:53;;;;;;;9.17;8.03;;;22.80;95.90;;;22.46;52.86;100865.25;5056413;28;20244;-77
2023/06/18 09:22:25;;;;;;;8.17;7.50;;;23.00;94.50;;;22.47;54.29;100867.72;5056484;28;20229;-77
2023/06/18 09:25:02;;;;;;;10.60;8.20;;;23.00;95.30;;;22.64;53.23;100868.69;5056498;28;20198;-77
2023/06/18 09:27:39;;;;;;;8.90;8.10;;;23.10;95.00;;;22.76;50.10;100865.16;5055976;28;20277;-78
2023/06/18 09:30:20;;;;;;;8.33;7.53;;;23.20;92.80;;;22.74;52.54;100866.22;5055971;28;20659;-78
2023/06/18 09:32:57;;;;;;;8.10;7.30;;;23.20;94.30;;;22.99;48.87;100865.16;5056084;28;20268;-78
2023/06/18 09:35:31;;;;;;;8.63;7.77;;;23.40;92.80;;;23.00;50.68;100861.38;5056154;28;20201;-78
2023/06/18 09:38:11;;;;;;;8.50;7.70;;;23.50;93.30;;;23.00;51.31;100861.38;5056075;28;20194;-77
2023/06/18 09:40:49;;;;;;;8.53;7.43;;;23.50;93.10;;;23.21;47.75;100855.28;5055936;28;20687;-77
2023/06/18 09:43:22;;;;;;;9.03;6.90;;;23.80;91.50;;;23.34;47.83;100846.81;5055747;28;20222;-77
2023/06/18 09:45:53;;;;;;;7.50;6.70;;;23.80;90.70;;;23.45;48.41;100850.63;5056624;28;20277;-77
2023/06/18 09:48:28;;;;;;;7.20;6.50;;;24.00;90.90;;;23.48;48.19;100852.88;5055731;28;20675;-77
2023/06/18 09:51:01;;;;;;;6.27;5.67;;;23.90;91.40;;;23.48;47.31;100850.97;5055847;28;20276;-77
2023/06/18 09:53:33;;;;;;;7.17;6.20;;;24.00;90.20;;;23.61;43.39;100847.97;5055869;28;20291;-77
2023/06/18 09:56:17;;;;;;;8.07;7.13;;;24.10;86.00;;;23.66;42.63;100850.78;5055590;28;20635;-77
2023/06/18 09:58:50;;;;;;;6.20;5.60;;;24.10;84.00;;;23.76;41.37;100843.88;5055569;28;20640;-77
2023/06/18 10:01:23;;;;;;;6.30;5.53;;;24.30;80.40;;;23.86;37.06;100844.06;5055404;28;20656;-77
2023/06/18 10:03:57;;;;;;;6.73;6.00;;;24.30;74.20;;;23.88;39.91;100845.47;5055341;28;20704;-77
2023/06/18 10:06:30;;;;;;;8.07;7.28;;;24.40;78.70;;;23.91;43.92;100838.66;5055599;28;20285;-77
2023/06/18 10:09:03;;;;;;;8.10;6.67;;;24.30;85.80;;;24.02;43.96;100843.25;5055616;28;20290;-77
2023/06/18 10:11:37;;;;;;;7.50;6.70;;;24.40;84.80;;;24.12;43.83;100844.31;5056581;28;20205;-77
2023/06/18 10:14:13;;;;;;;9.23;6.90;;;24.50;86.40;;;24.20;46.50;100840.34;5055297;28;20257;-77
2023/06/18 10:16:51;;;;;;;6.93;6.40;;;24.60;88.10;;;24.44;44.33;100841.84;5055527;28;20589;-77
2023/06/18 10:19:31;;;;;;;8.20;7.40;;;24.80;85.40;;;24.50;44.31;100846.31;5055395;28;20357;-77
2023/06/18 10:22:04;;;;;;;6.95;6.18;;;25.00;84.80;;;24.55;45.70;100843.66;5055170;28;20198;-77
2023/06/18 10:24:40;;;;;;;7.33;6.73;;;25.00;87.50;;;24.71;41.14;100842.81;5053970;28;20615;-77